PUX weather

El Mirador Airport
Puerto Varas, Los Lagos Region, Chile

Public forecast

Using degrees Celsius for public forecast. Weather courtesy of forecast.io.

Closest aviation weather report (METAR) to El Mirador Airport

Closest report is El Tepual Airport, 8.5 nm (15.8 km) SW. Retrieved 2020/04/08 21:00 UTC (26 minutes ago):

SCTE 082100Z 14007KT CAVOK 19/10 Q1012 NOSIG

Closest aviation forecast (TAF) to El Mirador Airport

Closest forecast is El Tepual Airport, 8.5 nm (15.8 km) SW. Retrieved 2020/04/08 18:00 UTC (3 hours ago):

TAF SCTE 081615Z 0818/0918 17008KT CAVOK TX22/0819Z TN04/0912Z BECMG 0901/0903 VRB03KT BECMG 0905/0907 0500 FG BKN002 BECMG 0913/0915 9999 NSW SCT010 BECMG 0916/0918 18007KT CAVOK